Impacts TAF Board
For situational awareness. Not to be used for flight planning purposes.
IDs:

PAFA - Fairbanks Intl, AK, US

Issued at 1120 UTC 03 Dec 2021
Updated at 1536 UTC 03 Dec 2021
Potential Impact None Slight Moderate High
Time1453Z 03/16Z 03/17Z 03/18Z 03/19Z 03/20Z 03/21Z 03/22Z 03/23Z 04/00Z 04/01Z 04/02Z 04/03Z 04/04Z>>
Type OBS PRVL PRVL PRVL PRVL PRVL PRVL PRVL PRVL PRVL PRVL PRVL PRVL PRVL
VIS 10 >6 >6 >6 >6 >6 >6 >6 >6 >6 >6 >6 >6 >6
CIG -- -- -- -- -- -- -- -- -- -- -- -- -- --
Cover CLR SKC SKC SKC SKC SKC SKC SKC SKC SKC SKC SKC SKC SKC
FltCat VFR VFR VFR VFR VFR VFR VFR VFR VFR VFR VFR VFR VFR VFR
WX -- VCFG VCFG VCFG VCFG VCFG VCFG VCFG VCFG VCFG VCFG VCFG VCFG VCFG
WDir VRB VRB VRB VRB VRB VRB VRB VRB VRB VRB VRB VRB VRB VRB
WSpd 0 0 0 0 0 0 0 0 0 0 0 0 0 0
WGst -- -- -- -- -- -- -- -- -- -- -- -- -- --
WSHgt -- -- -- -- -- -- -- -- -- -- -- -- -- --
WSDir -- -- -- -- -- -- -- -- -- -- -- -- -- --
WSSpd -- -- -- -- -- -- -- -- -- -- -- -- -- --
Raw TAF
PAFA 031120Z 0312/0418 00000KT P6SM VCFG SKC

Raw METAR
PAFA 031453Z 00000KT 10SM CLR M36/ A3045 RMK AO2 SLP335 T1361 56014 $
PAFA 031353Z 00000KT 10SM CLR M36/ A3047 RMK AO2 SLP340 T1361 $
PAFA 031253Z 00000KT 10SM CLR M35/ A3048 RMK AO2 SLP344 T1350 $

METAR Board
Radar Display
Forecast Discussion
For situational awareness. Not to be used for flight planning purposes.